Potsdam, NY

10:41 PM EDT on March 25, 2017 (GMT -0400)
ERC, Clarkson Campus | | Change Station

Elev 479 ft 44.66 °N, 75.00 °W | Updated 11 minutes ago

Clear
Clear
30.2 °F
Feels Like 30 °F
N
1.0
Wind Variable Wind from NE
Gusts 3.0 mph

Today
High -- | Low -- °F
--% Chance of Precip.
Yesterday
High -- | Low -- °F
Precip. -- in
Pressure 30.51 in
Visibility 10.0 miles
Clouds Clear
Windchill 30 °F
Dew Point 27 °F
Humidity 86%
Rainfall 0.15 in
Snow Depth Not available.
6:53 AM 7:18 PM
Waning Crescent, 5% visible
METAR KMSS 260153Z AUTO 00000KT 10SM CLR M04/M06 A3048 RMK AO2 SLP329 T10441056
Pressure 30.51 in
Visibility 10.0 miles
Clouds Clear
Windchill 30 °F
Dew Point 27 °F
Humidity 86%
Rainfall 0.15 in
Snow Depth Not available.
6:53 AM 7:18 PM
Waning Crescent, 5% visible
METAR KMSS 260153Z AUTO 00000KT 10SM CLR M04/M06 A3048 RMK AO2 SLP329 T10441056

Get Severe Weather Alerts

Thanks for signing up!

Be on the lookout for a verification email in your inbox.

You'll start receiving the daily forecast at 8 AM.

×

10-Day Weather Forecast

Almanac

Astronomy

Mar. 25, 2017 Rise Set
Actual Time
Civil Twilight
Nautical Twilight
Astronomical Twilight
Moon
Length of Visible Light
Length of Day
Tomorrow will be .
, % of the Moon is Illuminated

Today's Extremes

State Highs State Lows

Community

WunderPhotos

Upload Photos

1,962,540 photos uploaded!

WunderBlog® & News

Nearby

Air Quality

  Air Quality AQ Index Pollutant
Not available.

Snow Depth

Station Depth Elevation

Earthquake Activity

City Distance Mag. Time & Date
Minimum magnitude displayed is 2.5.

Earthquake Activity

City Distance Mag. Time & Date
Minimum magnitude displayed is 2.5.

Coastal Water Temperatures

Place Temperature

Stations

Nearby Weather Stations

Station Location Temp. Windchill Dew Point Humidity Wind Precip. Elev Updated Type
                   

Watches & Warnings

There are currently no watches in effect.